Terminal Aerodrome Forecast
Issued by NWS Blacksburg, VA

Home | Current Version | Previous Version | Text Only | Print | Product List | Glossary On
Versions: 1 2 3 4 5 6 7 8 9 10 11 12 13 14 15 16 17 18 19 20 21 22 23 24 25 26
893
FTUS41 KRNK 181140
TAFROA
TAF
KROA 181140Z 1812/1912 13008KT P6SM OVC110
     FM181800 17010G18KT P6SM -PLRA SCT025 OVC040
     FM182000 18010G18KT P6SM -RA OVC028
     FM182300 21011KT P6SM OVC015
     FM190600 27010G20KT P6SM BKN035=

USA.gov is the U.S. government's official web portal to all federal, state and local government web resources and services.